Time;durP1;ratioP1;P1;durP2;ratioP2;P2;SDS_P1;SDS_P2;PMS_P1;PMS_P2;Temp;Humidity;BMP_temperature;BMP_pressure;BME280_temperature;BME280_humidity;BME280_pressure;Samples;Min_cycle;Max_cycle;Signal;HPM_P1;HPM_P2
2022/06/16 00:00:38;;;;;;;10.57;6.10;;;14.70;99.90;;;;;;4995778;28;20077;-89
2022/06/16 00:03:06;;;;;;;16.55;6.28;;;14.70;99.90;;;;;;4995269;28;20077;-89
2022/06/16 00:05:34;;;;;;;11.75;5.43;;;14.60;99.90;;;;;;4976309;28;20025;-88
2022/06/16 00:08:02;;;;;;;13.35;5.97;;;14.70;99.90;;;;;;4975852;28;20366;-89
2022/06/16 00:10:28;;;;;;;15.63;6.38;;;14.70;99.90;;;;;;4976790;28;20028;-89
2022/06/16 00:12:54;;;;;;;14.23;6.07;;;14.70;99.90;;;;;;4976617;28;20558;-89
2022/06/16 00:15:23;;;;;;;9.23;5.43;;;14.70;99.90;;;;;;4977554;28;20023;-88
2022/06/16 00:17:49;;;;;;;15.38;6.18;;;14.60;99.90;;;;;;4975692;28;20038;-89
2022/06/16 00:20:15;;;;;;;13.55;6.60;;;14.60;99.90;;;;;;4983132;28;20103;-88
2022/06/16 00:22:41;;;;;;;16.40;6.45;;;14.70;99.90;;;;;;4982726;28;20022;-88
2022/06/16 00:25:08;;;;;;;13.25;6.95;;;14.60;99.90;;;;;;4995926;28;20018;-85
2022/06/16 00:27:34;;;;;;;13.48;5.75;;;14.70;99.90;;;;;;4983646;28;20041;-89
2022/06/16 00:30:00;;;;;;;12.05;6.03;;;14.60;99.90;;;;;;4975818;28;20161;-90
2022/06/16 00:32:26;;;;;;;14.07;6.90;;;14.50;99.90;;;;;;4988513;28;20065;-89
2022/06/16 00:34:52;;;;;;;12.50;5.95;;;14.50;99.90;;;;;;4999921;28;20026;-88
2022/06/16 00:37:18;;;;;;;14.32;5.63;;;14.50;99.90;;;;;;4990000;28;20086;-89
2022/06/16 00:39:44;;;;;;;13.52;5.82;;;14.50;99.90;;;;;;4979135;28;20058;-88
2022/06/16 00:42:16;;;;;;;17.30;6.75;;;14.50;99.90;;;;;;4975864;28;20027;-88
2022/06/16 00:44:44;;;;;;;13.52;6.22;;;14.30;99.90;;;;;;4975423;28;20032;-88
2022/06/16 00:47:11;;;;;;;16.42;6.28;;;14.20;99.90;;;;;;4975458;28;20034;-90
2022/06/16 00:49:41;;;;;;;11.13;5.15;;;14.30;99.90;;;;;;4958375;28;20041;-87
2022/06/16 00:52:14;;;;;;;20.20;7.00;;;14.20;99.90;;;;;;4975646;28;20121;-88
2022/06/16 00:54:55;;;;;;;12.18;5.88;;;14.40;99.90;;;;;;4975347;28;20437;-89
2022/06/16 00:57:31;;;;;;;12.38;6.15;;;14.40;99.90;;;;;;4975450;28;20053;-89
2022/06/16 00:59:58;;;;;;;12.70;6.10;;;14.30;99.90;;;;;;4970193;28;20019;-88
2022/06/16 01:02:28;;;;;;;12.00;6.53;;;14.20;99.90;;;;;;4974886;28;20034;-89
2022/06/16 01:04:54;;;;;;;11.05;6.13;;;14.30;99.90;;;;;;4989392;28;20058;-88
2022/06/16 01:07:28;;;;;;;14.85;5.80;;;14.40;99.90;;;;;;4994184;28;20643;-88
2022/06/16 01:09:55;;;;;;;12.65;5.93;;;14.50;99.90;;;;;;5047234;23;20053;-51
2022/06/16 01:15:35;;;;;;;12.45;6.20;;;14.30;99.90;;;;;;5031631;28;20041;-52
2022/06/16 01:18:41;;;;;;;11.93;5.35;;;14.30;99.90;;;;;;5031325;28;20037;-51
2022/06/16 01:21:41;;;;;;;17.05;6.30;;;14.30;99.90;;;;;;5020535;28;20128;-52
2022/06/16 01:24:31;;;;;;;9.18;5.68;;;14.40;99.90;;;;;;5031318;28;20026;-51
2022/06/16 01:27:40;;;;;;;10.80;5.80;;;14.40;99.90;;;;;;5031385;28;20040;-51
2022/06/16 01:30:14;;;;;;;11.18;5.68;;;14.40;99.90;;;;;;5031024;28;20461;-52
2022/06/16 01:32:58;;;;;;;11.85;6.55;;;14.40;99.90;;;;;;5031152;28;20109;-52
2022/06/16 01:35:45;;;;;;;14.70;5.78;;;14.40;99.90;;;;;;5031253;28;20040;-52
2022/06/16 01:38:27;;;;;;;10.65;5.70;;;14.40;99.90;;;;;;5030962;28;20041;-52
2022/06/16 01:41:04;;;;;;;11.02;6.00;;;14.40;99.90;;;;;;5012820;28;20079;-52
2022/06/16 01:43:33;;;;;;;9.75;5.28;;;14.40;99.90;;;;;;5030804;28;20125;-53
2022/06/16 01:45:58;;;;;;;13.52;5.93;;;14.40;99.90;;;;;;5031038;28;20033;-52
2022/06/16 01:48:27;;;;;;;12.07;5.80;;;14.40;99.90;;;;;;5030774;28;20362;-51
2022/06/16 01:51:34;;;;;;;12.93;6.40;;;14.50;99.90;;;;;;5030630;28;20291;-51
2022/06/16 01:54:16;;;;;;;13.15;6.25;;;14.40;99.90;;;;;;5019701;28;20468;-50
2022/06/16 01:57:07;;;;;;;15.60;6.78;;;14.40;99.90;;;;;;5030310;28;20500;-52
2022/06/16 01:59:48;;;;;;;14.63;6.53;;;14.40;99.90;;;;;;5030537;28;20037;-52
2022/06/16 02:02:17;;;;;;;15.90;6.88;;;14.30;99.90;;;;;;5030104;28;20469;-52
2022/06/16 02:04:49;;;;;;;13.80;7.15;;;14.30;99.90;;;;;;5030411;28;20072;-52
2022/06/16 02:07:22;;;;;;;13.88;7.55;;;14.10;99.90;;;;;;5030532;28;20084;-51
2022/06/16 02:09:51;;;;;;;13.43;7.20;;;14.20;99.90;;;;;;5030043;28;20519;-52
2022/06/16 02:15:20;;;;;;;12.77;7.18;;;14.10;99.90;;;;;;5030126;28;20056;-51
2022/06/16 02:17:46;;;;;;;19.30;8.82;;;14.00;99.90;;;;;;5014013;28;20037;-52
2022/06/16 02:20:12;;;;;;;17.75;9.07;;;13.90;99.90;;;;;;5029981;28;20107;-51
2022/06/16 02:22:38;;;;;;;15.43;9.25;;;13.90;99.90;;;;;;5030036;28;20087;-52
2022/06/16 02:25:04;;;;;;;19.20;9.48;;;13.90;99.90;;;;;;5029951;28;20030;-52
2022/06/16 02:27:29;;;;;;;16.35;8.50;;;14.00;99.90;;;;;;5029949;28;20025;-52
2022/06/16 02:29:55;;;;;;;16.23;9.00;;;14.00;99.90;;;;;;5030097;28;20036;-52
2022/06/16 02:32:30;;;;;;;16.55;9.73;;;14.00;99.90;;;;;;5029897;28;20464;-52
2022/06/16 02:35:16;;;;;;;20.42;11.05;;;14.00;99.90;;;;;;5030030;28;20053;-53
2022/06/16 02:38:03;;;;;;;15.65;8.75;;;13.90;99.90;;;;;;5029969;28;20030;-53
2022/06/16 02:40:57;;;;;;;17.98;10.43;;;13.90;99.90;;;;;;5029745;28;20034;-53
2022/06/16 02:43:47;;;;;;;18.98;10.82;;;13.80;99.90;;;;;;5029607;28;20033;-51
2022/06/16 02:46:27;;;;;;;20.20;10.10;;;13.80;99.90;;;;;;5029687;28;20392;-50
2022/06/16 02:49:19;;;;;;;17.98;9.27;;;13.80;99.90;;;;;;5029792;28;20026;-49
2022/06/16 02:52:00;;;;;;;16.58;9.77;;;13.90;99.90;;;;;;5029512;28;20033;-50
2022/06/16 02:54:51;;;;;;;15.13;8.77;;;13.80;99.90;;;;;;5029427;28;20033;-51
2022/06/16 02:57:45;;;;;;;14.73;8.45;;;13.80;99.90;;;;;;5029299;28;20366;-51
2022/06/16 03:00:15;;;;;;;19.45;10.27;;;13.80;99.90;;;;;;4991730;28;20022;-50
2022/06/16 03:02:42;;;;;;;17.50;8.80;;;13.80;99.90;;;;;;5009628;28;20433;-50
2022/06/16 03:05:09;;;;;;;17.90;9.95;;;13.90;99.90;;;;;;5009868;28;20022;-51
2022/06/16 03:07:35;;;;;;;;;;;13.90;99.90;;;;;;5010037;28;20422;-51
2022/06/16 03:10:03;;;;;;;22.58;8.98;;;13.80;99.90;;;;;;5009758;28;19910;-50
2022/06/16 03:12:30;;;;;;;15.07;9.30;;;13.70;99.90;;;;;;5009893;28;20022;-50
2022/06/16 03:14:55;;;;;;;21.92;11.32;;;13.70;99.90;;;;;;5013797;28;20029;-50
2022/06/16 03:17:21;;;;;;;15.95;9.50;;;13.70;99.90;;;;;;5013684;28;20369;-49
2022/06/16 03:19:47;;;;;;;22.13;9.73;;;13.70;99.90;;;;;;5013554;28;20026;-50
2022/06/16 03:22:13;;;;;;;17.48;10.63;;;13.70;99.90;;;;;;5013441;28;20041;-49
2022/06/16 03:24:38;;;;;;;19.95;10.73;;;13.50;99.90;;;;;;5013376;28;20037;-50
2022/06/16 03:27:05;;;;;;;17.98;9.93;;;13.60;99.90;;;;;;5013306;28;20026;-50
2022/06/16 03:29:31;;;;;;;16.88;10.40;;;13.60;99.90;;;;;;5013284;28;20119;-51
2022/06/16 03:31:57;;;;;;;20.58;10.35;;;13.50;99.90;;;;;;5013328;28;20030;-51
2022/06/16 03:34:24;;;;;;;22.50;10.43;;;13.60;99.90;;;;;;5013357;28;20041;-50
2022/06/16 03:36:51;;;;;;;21.48;9.60;;;13.70;99.90;;;;;;4995362;28;20354;-50
2022/06/16 03:39:17;;;;;;;17.87;9.97;;;13.60;99.90;;;;;;5013312;28;20046;-50
2022/06/16 03:41:43;;;;;;;24.42;10.52;;;13.50;99.90;;;;;;5012959;28;20029;-49
2022/06/16 03:44:08;;;;;;;16.58;10.05;;;13.60;99.90;;;;;;5013195;28;20103;-51
2022/06/16 03:46:34;;;;;;;18.00;8.88;;;13.70;99.90;;;;;;5013159;28;20030;-50
2022/06/16 03:49:00;;;;;;;16.60;9.63;;;13.70;99.90;;;;;;5013187;28;20532;-50
2022/06/16 03:51:26;;;;;;;18.77;10.02;;;13.70;99.90;;;;;;5013086;28;20524;-49
2022/06/16 03:53:51;;;;;;;17.15;9.65;;;13.80;99.90;;;;;;5012848;28;20468;-50
2022/06/16 03:56:18;;;;;;;19.38;10.10;;;13.80;99.90;;;;;;5012902;28;20525;-51
2022/06/16 03:58:43;;;;;;;18.13;9.68;;;13.90;99.90;;;;;;5019966;28;20563;-51
2022/06/16 04:01:10;;;;;;;19.52;9.63;;;13.80;99.90;;;;;;5032639;28;20021;-51
2022/06/16 04:06:21;;;;;;;21.27;10.65;;;13.80;99.90;;;;;;5032912;28;20052;-50
2022/06/16 04:08:47;;;;;;;21.17;9.50;;;13.90;99.90;;;;;;5032138;28;20041;-50
2022/06/16 04:11:27;;;;;;;17.35;9.45;;;13.90;99.90;;;;;;5032594;28;20037;-50
2022/06/16 04:14:00;;;;;;;16.42;9.60;;;14.00;99.90;;;;;;5032461;28;20026;-51
2022/06/16 04:16:30;;;;;;;17.05;9.73;;;14.00;99.90;;;;;;5032411;28;20461;-52
2022/06/16 04:18:56;;;;;;;27.45;9.77;;;14.10;99.90;;;;;;5032131;28;20037;-51
2022/06/16 04:21:22;;;;;;;19.73;9.57;;;14.20;99.90;;;;;;5032194;28;20029;-50
2022/06/16 04:23:48;;;;;;;18.40;10.10;;;14.30;99.90;;;;;;5032169;28;20032;-53
2022/06/16 04:26:13;;;;;;;15.90;9.82;;;14.40;99.90;;;;;;5032377;28;20053;-51
2022/06/16 04:28:39;;;;;;;19.08;10.63;;;14.40;99.90;;;;;;5032414;28;20681;-50
2022/06/16 04:31:04;;;;;;;14.73;9.57;;;14.50;99.90;;;;;;5031928;28;20088;-50
2022/06/16 04:33:30;;;;;;;17.33;10.70;;;14.60;99.90;;;;;;5032021;28;20039;-52
2022/06/16 04:35:56;;;;;;;21.65;10.95;;;14.70;99.90;;;;;;5032021;28;20053;-50
2022/06/16 04:38:22;;;;;;;22.20;11.18;;;14.70;99.90;;;;;;5031863;28;20053;-51
2022/06/16 04:40:48;;;;;;;19.73;10.63;;;14.70;99.90;;;;;;5031705;28;20017;-51
2022/06/16 04:43:14;;;;;;;18.92;10.02;;;14.90;99.90;;;;;;5031824;28;20041;-50
2022/06/16 04:45:44;;;;;;;19.67;10.40;;;14.90;99.90;;;;;;5031793;28;20496;-51
2022/06/16 04:48:10;;;;;;;20.80;10.93;;;15.00;99.90;;;;;;5031763;28;20033;-51
2022/06/16 04:50:36;;;;;;;21.27;9.83;;;15.10;99.90;;;;;;5031883;28;20104;-50
2022/06/16 04:53:02;;;;;;;18.75;9.95;;;15.20;99.90;;;;;;5031611;28;20104;-50
2022/06/16 04:55:28;;;;;;;13.43;9.27;;;15.30;99.90;;;;;;5031719;28;20040;-50
2022/06/16 04:57:54;;;;;;;19.77;9.20;;;15.30;99.90;;;;;;5030984;28;20037;-51
2022/06/16 05:00:21;;;;;;;16.67;10.00;;;15.40;99.90;;;;;;5012002;28;20494;-51
2022/06/16 05:02:47;;;;;;;17.13;9.52;;;15.50;99.90;;;;;;5011490;28;20030;-50
2022/06/16 05:05:13;;;;;;;16.50;9.10;;;15.60;99.90;;;;;;5011503;28;20030;-50
2022/06/16 05:07:39;;;;;;;15.52;8.68;;;15.70;99.90;;;;;;5011213;28;20030;-51
2022/06/16 05:10:05;;;;;;;16.33;7.97;;;15.80;99.90;;;;;;5011561;28;20033;-51
2022/06/16 05:12:31;;;;;;;18.90;8.20;;;15.80;99.90;;;;;;5011428;28;20057;-51
2022/06/16 05:14:57;;;;;;;20.27;8.95;;;16.00;99.90;;;;;;5011603;28;20511;-51
2022/06/16 05:17:22;;;;;;;15.18;7.45;;;16.00;99.90;;;;;;5011349;28;20037;-51
2022/06/16 05:19:48;;;;;;;16.08;7.70;;;16.10;99.90;;;;;;5011360;28;20525;-51
2022/06/16 05:22:14;;;;;;;13.20;7.80;;;16.20;99.90;;;;;;5011095;28;20393;-52
2022/06/16 05:24:40;;;;;;;12.57;7.30;;;16.30;99.90;;;;;;5011782;28;20026;-50
2022/06/16 05:27:06;;;;;;;15.32;6.45;;;16.40;99.90;;;;;;5011303;28;20508;-51
2022/06/16 05:29:32;;;;;;;17.65;6.45;;;16.50;99.90;;;;;;5011418;28;20453;-51
2022/06/16 05:31:58;;;;;;;17.58;6.35;;;16.60;99.90;;;;;;5011412;28;20038;-49
2022/06/16 05:34:24;;;;;;;16.15;7.25;;;16.60;99.90;;;;;;4993357;28;20037;-51
2022/06/16 05:36:50;;;;;;;8.45;5.95;;;16.70;99.90;;;;;;5010654;28;20025;-51
2022/06/16 05:39:17;;;;;;;15.02;6.03;;;16.90;99.90;;;;;;5011334;28;20058;-50
2022/06/16 05:41:45;;;;;;;10.73;5.90;;;17.00;99.90;;;;;;5011022;28;20036;-51
2022/06/16 05:44:11;;;;;;;12.30;6.20;;;17.10;99.90;;;;;;5010969;28;20037;-52
2022/06/16 05:46:37;;;;;;;11.75;6.72;;;17.20;99.90;;;;;;5010982;28;20021;-51
2022/06/16 05:49:04;;;;;;;13.95;6.82;;;17.30;99.90;;;;;;5011021;28;20481;-51
2022/06/16 05:51:30;;;;;;;10.13;5.43;;;17.40;99.90;;;;;;5010711;28;20395;-50
2022/06/16 05:53:56;;;;;;;12.85;6.25;;;17.50;99.90;;;;;;5010851;28;20057;-51
2022/06/16 05:56:22;;;;;;;14.77;6.10;;;17.50;99.90;;;;;;5010486;28;20053;-51
2022/06/16 05:58:47;;;;;;;13.60;6.47;;;17.60;99.90;;;;;;4999927;28;20041;-52
2022/06/16 06:01:14;;;;;;;16.80;6.45;;;17.70;99.90;;;;;;5030396;28;20033;-51
2022/06/16 06:03:41;;;;;;;12.90;5.63;;;17.90;99.90;;;;;;5030438;28;20040;-50
2022/06/16 06:06:08;;;;;;;13.55;5.60;;;18.00;99.90;;;;;;5030206;28;20030;-51
2022/06/16 06:17:14;;;;;;;7.55;3.63;;;18.50;99.90;;;;;;5030394;28;20487;-50
2022/06/16 06:19:40;;;;;;;8.25;4.07;;;18.60;99.90;;;;;;5030103;28;20033;-50
2022/06/16 06:22:13;;;;;;;10.70;4.05;;;18.70;99.90;;;;;;5029900;28;20468;-52
2022/06/16 06:24:46;;;;;;;8.48;4.35;;;18.90;99.90;;;;;;5030257;28;20076;-50
2022/06/16 06:27:29;;;;;;;7.30;3.72;;;19.00;99.90;;;;;;5030118;28;20036;-52
2022/06/16 06:29:55;;;;;;;12.30;4.05;;;19.00;99.90;;;;;;5030102;28;20120;-50
2022/06/16 06:32:22;;;;;;;8.40;4.18;;;19.20;99.90;;;;;;5029826;28;20106;-50
2022/06/16 06:34:48;;;;;;;9.50;4.10;;;19.20;99.90;;;;;;5029672;28;20040;-51
2022/06/16 06:37:17;;;;;;;7.22;3.63;;;19.30;99.90;;;;;;5030029;28;20025;-50
2022/06/16 06:39:43;;;;;;;9.70;4.32;;;19.40;99.90;;;;;;5030127;28;20033;-50
2022/06/16 06:42:09;;;;;;;10.27;4.35;;;19.40;99.90;;;;;;5012404;28;20056;-49
2022/06/16 06:44:35;;;;;;;12.63;4.50;;;19.50;99.90;;;;;;5029582;28;20072;-50
2022/06/16 06:47:02;;;;;;;10.25;4.05;;;19.60;99.90;;;;;;5028941;28;20037;-50
2022/06/16 06:49:28;;;;;;;11.07;4.80;;;19.60;99.90;;;;;;5029608;28;20036;-50
2022/06/16 06:51:54;;;;;;;7.60;3.72;;;19.70;99.90;;;;;;5029615;28;20042;-50
2022/06/16 06:54:20;;;;;;;6.97;3.55;;;19.80;99.90;;;;;;5029817;28;20030;-50
2022/06/16 06:56:48;;;;;;;11.38;4.88;;;19.80;99.90;;;;;;5029405;28;20068;-50
2022/06/16 06:59:18;;;;;;;8.77;4.25;;;19.80;99.90;;;;;;5018907;28;20128;-51
2022/06/16 07:01:48;;;;;;;9.02;3.83;;;19.90;99.90;;;;;;5009629;28;20535;-51
2022/06/16 07:04:14;;;;;;;8.05;4.18;;;19.90;99.90;;;;;;5009655;28;20379;-50
2022/06/16 07:06:41;;;;;;;8.25;3.83;;;20.00;99.90;;;;;;5009963;28;20097;-51
2022/06/16 07:09:07;;;;;;;12.32;4.82;;;20.10;99.90;;;;;;5009505;28;20045;-51
2022/06/16 07:11:33;;;;;;;7.68;4.50;;;20.00;99.90;;;;;;5009816;28;20037;-53
2022/06/16 07:13:59;;;;;;;10.77;4.70;;;20.10;99.90;;;;;;5009668;28;20034;-53
2022/06/16 07:16:24;;;;;;;8.48;4.32;;;20.20;99.90;;;;;;5009660;28;20040;-51
2022/06/16 07:18:50;;;;;;;12.43;4.07;;;20.30;99.90;;;;;;5009623;28;20168;-52
2022/06/16 07:21:16;;;;;;;9.93;4.32;;;20.40;99.90;;;;;;5009711;28;20030;-51
2022/06/16 07:23:43;;;;;;;8.63;4.57;;;20.40;99.90;;;;;;5009741;28;20026;-51
2022/06/16 07:26:09;;;;;;;8.27;4.43;;;20.50;99.90;;;;;;5009459;28;20044;-52
2022/06/16 07:28:35;;;;;;;10.35;4.00;;;20.60;99.90;;;;;;5009468;28;20037;-52
2022/06/16 07:31:00;;;;;;;11.77;5.28;;;20.70;99.90;;;;;;5009486;28;20024;-52
2022/06/16 07:33:26;;;;;;;10.65;4.43;;;20.70;99.90;;;;;;5009502;28;20034;-50
2022/06/16 07:35:53;;;;;;;8.32;3.95;;;20.90;99.90;;;;;;4991922;28;20157;-53
2022/06/16 07:38:20;;;;;;;9.57;4.07;;;21.10;99.90;;;;;;5009668;28;20054;-53
2022/06/16 07:40:46;;;;;;;;;;;21.20;99.90;;;;;;5009888;28;20072;-52
2022/06/16 07:43:11;;;;;;;7.45;3.60;;;21.20;99.90;;;;;;5009375;28;19905;-53
2022/06/16 07:45:39;;;;;;;7.75;3.38;;;21.20;99.90;;;;;;5009321;28;20026;-52
2022/06/16 07:48:06;;;;;;;;;;;21.30;99.90;;;;;;5009983;28;20099;-51
2022/06/16 07:50:33;;;;;;;6.15;3.65;;;21.30;99.90;;;;;;5009548;28;19909;-53
2022/06/16 07:52:59;;;;;;;7.80;3.60;;;21.50;99.90;;;;;;5009303;28;20133;-53
2022/06/16 07:55:26;;;;;;;7.63;3.47;;;21.60;99.90;;;;;;5009202;28;20030;-52
2022/06/16 07:57:52;;;;;;;4.32;3.03;;;21.70;99.90;;;;;;5009373;28;20083;-53
2022/06/16 08:00:24;;;;;;;6.97;3.70;;;21.80;99.90;;;;;;5031139;28;20032;-54
2022/06/16 08:02:50;;;;;;;8.02;3.30;;;22.00;99.90;;;;;;5032936;28;20030;-53
2022/06/16 08:05:17;;;;;;;6.60;3.58;;;22.10;99.90;;;;;;5032658;28;20029;-52
2022/06/16 08:07:43;;;;;;;5.95;2.92;;;22.20;99.90;;;;;;5032673;28;20494;-52
2022/06/16 08:10:16;;;;;;;9.23;3.90;;;22.20;99.90;;;;;;5032526;28;20095;-52
2022/06/16 08:12:43;;;;;;;7.15;4.00;;;22.30;99.90;;;;;;5032359;28;20030;-52
2022/06/16 08:15:10;;;;;;;8.70;4.35;;;22.40;99.90;;;;;;5032340;28;20021;-51
2022/06/16 08:17:40;;;;;;;5.57;2.85;;;22.40;99.90;;;;;;5032380;28;20045;-52
2022/06/16 08:20:07;;;;;;;8.48;3.40;;;22.30;99.90;;;;;;5032372;28;20018;-52
2022/06/16 08:22:33;;;;;;;;;;;22.40;99.90;;;;;;5032591;28;20517;-52
2022/06/16 08:24:59;;;;;;;5.38;3.10;;;22.50;99.90;;;;;;5032300;28;20412;-52
2022/06/16 08:27:31;;;;;;;10.25;4.38;;;22.60;99.90;;;;;;5032249;28;20080;-52
2022/06/16 08:29:57;;;;;;;7.07;3.20;;;22.80;99.90;;;;;;5032426;28;20033;-51
2022/06/16 08:32:24;;;;;;;8.65;3.60;;;22.80;99.90;;;;;;5031965;28;20036;-51
2022/06/16 08:34:49;;;;;;;5.97;3.23;;;22.70;99.90;;;;;;5032356;28;20033;-50
2022/06/16 08:37:16;;;;;;;5.57;3.17;;;22.80;99.90;;;;;;5032057;28;20655;-53
2022/06/16 08:39:42;;;;;;;6.32;3.13;;;22.70;99.90;;;;;;5031919;28;20488;-52
2022/06/16 08:42:16;;;;;;;6.85;3.20;;;22.70;99.90;;;;;;5032152;28;20038;-52
2022/06/16 08:44:50;;;;;;;10.05;3.45;;;22.70;99.90;;;;;;5014163;28;20024;-52
2022/06/16 08:47:16;;;;;;;7.18;3.03;;;22.70;99.90;;;;;;5031956;28;20060;-52
2022/06/16 08:49:55;;;;;;;7.75;3.60;;;22.70;99.90;;;;;;5031806;28;20413;-53
2022/06/16 08:52:31;;;;;;;5.07;3.08;;;22.80;99.90;;;;;;5031790;28;20025;-52
2022/06/16 08:55:21;;;;;;;8.05;3.85;;;22.90;99.90;;;;;;5031855;28;20033;-53
2022/06/16 08:58:04;;;;;;;6.15;3.70;;;23.00;99.60;;;;;;5031481;28;20481;-51
2022/06/16 09:00:39;;;;;;;6.15;2.92;;;23.20;99.90;;;;;;5011583;28;20041;-52
2022/06/16 09:03:10;;;;;;;7.97;3.28;;;23.40;99.90;;;;;;5011666;28;20029;-51
2022/06/16 09:06:00;;;;;;;7.38;3.20;;;23.30;97.90;;;;;;5012020;28;20105;-51
2022/06/16 09:08:46;;;;;;;8.10;3.28;;;23.40;97.20;;;;;;5011387;28;20104;-52
2022/06/16 09:11:25;;;;;;;8.05;3.03;;;23.50;99.80;;;;;;5010619;28;20581;-53
2022/06/16 09:14:17;;;;;;;6.45;3.33;;;23.50;97.70;;;;;;5011539;28;20028;-51
2022/06/16 09:17:00;;;;;;;7.63;3.50;;;23.50;98.10;;;;;;5011508;28;20104;-52
2022/06/16 09:19:40;;;;;;;6.65;3.20;;;23.90;97.60;;;;;;5011893;28;20114;-52
2022/06/16 09:22:09;;;;;;;10.55;3.40;;;23.80;97.20;;;;;;5011351;28;20042;-52
2022/06/16 09:24:55;;;;;;;6.90;3.50;;;24.00;97.40;;;;;;5011263;28;20092;-52
2022/06/16 09:27:35;;;;;;;8.55;3.60;;;24.10;95.50;;;;;;5011268;28;20121;-52
2022/06/16 09:30:14;;;;;;;6.65;3.58;;;24.20;94.10;;;;;;5011098;28;20030;-51
2022/06/16 09:32:52;;;;;;;7.72;2.90;;;24.20;94.30;;;;;;5011285;28;20547;-52
2022/06/16 09:35:40;;;;;;;5.53;2.70;;;24.00;90.90;;;;;;5011121;28;20102;-51
2022/06/16 09:38:25;;;;;;;5.22;3.13;;;24.10;92.90;;;;;;5010813;28;20030;-51
2022/06/16 09:44:10;;;;;;;8.00;3.17;;;24.00;92.10;;;;;;5011374;28;20036;-51
2022/06/16 09:46:42;;;;;;;8.65;3.28;;;24.10;91.60;;;;;;5011297;28;20073;-51
2022/06/16 09:49:13;;;;;;;5.35;2.90;;;24.00;91.60;;;;;;5010853;28;20113;-51
2022/06/16 09:51:48;;;;;;;7.38;2.78;;;24.00;89.70;;;;;;5010945;28;20026;-52
2022/06/16 09:54:29;;;;;;;9.85;2.80;;;24.10;90.90;;;;;;5010913;28;20030;-50
2022/06/16 09:57:04;;;;;;;6.60;2.95;;;24.10;91.90;;;;;;4993571;28;20022;-52
2022/06/16 09:59:41;;;;;;;5.63;2.97;;;24.30;91.50;;;;;;5022271;28;20580;-52
2022/06/16 10:02:24;;;;;;;7.43;3.13;;;24.20;91.00;;;;;;5030304;28;20029;-51
2022/06/16 10:04:54;;;;;;;7.30;2.70;;;24.20;92.30;;;;;;5012556;28;20029;-52
2022/06/16 10:07:36;;;;;;;4.70;2.50;;;24.00;91.30;;;;;;5030263;28;20030;-51
2022/06/16 10:10:20;;;;;;;4.45;2.45;;;24.00;90.80;;;;;;5030180;28;20048;-51
2022/06/16 10:13:18;;;;;;;4.90;2.88;;;24.40;92.10;;;;;;5029930;28;20034;-52
2022/06/16 10:16:11;;;;;;;10.68;2.70;;;24.40;90.70;;;;;;5030169;28;20369;-51
2022/06/16 10:18:37;;;;;;;7.00;2.50;;;24.70;90.70;;;;;;5003549;28;20539;-51
2022/06/16 10:21:07;;;;;;;6.65;2.45;;;24.80;87.80;;;;;;5029871;28;20068;-52
2022/06/16 10:23:40;;;;;;;5.60;2.17;;;25.00;86.60;;;;;;5029964;28;20031;-52
2022/06/16 10:26:08;;;;;;;5.65;2.00;;;25.20;88.10;;;;;;5029896;28;20045;-53
2022/06/16 10:28:38;;;;;;;7.43;2.80;;;25.30;87.60;;;;;;5030165;28;20080;-51
2022/06/16 10:31:05;;;;;;;5.85;3.17;;;25.20;86.50;;;;;;5029827;28;20103;-51
2022/06/16 10:33:35;;;;;;;3.75;2.10;;;25.10;86.30;;;;;;5030014;28;20065;-52
2022/06/16 10:36:06;;;;;;;6.20;2.40;;;25.20;83.80;;;;;;5029794;28;20483;-52
2022/06/16 10:38:38;;;;;;;4.22;2.60;;;25.40;83.80;;;;;;5029679;28;20048;-52
2022/06/16 10:41:30;;;;;;;3.97;2.13;;;25.70;83.70;;;;;;5029666;28;20033;-53
2022/06/16 10:44:00;;;;;;;7.28;2.63;;;25.50;79.10;;;;;;5019961;28;20092;-51
2022/06/16 10:46:31;;;;;;;8.18;2.33;;;25.60;81.70;;;;;;5029539;28;20036;-52
2022/06/16 10:49:01;;;;;;;5.10;1.77;;;25.40;76.20;;;;;;5029628;28;20032;-51
2022/06/16 10:51:29;;;;;;;5.45;2.40;;;25.00;75.50;;;;;;5029308;28;20029;-52
2022/06/16 10:54:10;;;;;;;5.68;2.10;;;25.20;79.30;;;;;;5029711;28;20034;-52
2022/06/16 10:56:36;;;;;;;4.05;2.20;;;25.00;78.00;;;;;;5029590;28;20033;-52
2022/06/16 10:59:05;;;;;;;4.25;1.92;;;24.90;77.50;;;;;;5022117;28;20037;-51
2022/06/16 11:01:44;;;;;;;3.95;1.90;;;24.80;77.20;;;;;;5009578;28;20030;-51
2022/06/16 11:04:13;;;;;;;4.45;1.90;;;25.20;74.10;;;;;;5010044;28;20022;-51
2022/06/16 11:06:47;;;;;;;4.88;1.60;;;25.20;72.00;;;;;;5009814;28;20034;-52
2022/06/16 11:09:18;;;;;;;4.38;1.80;;;25.50;73.90;;;;;;5009733;28;20061;-52
2022/06/16 11:11:52;;;;;;;3.35;2.15;;;25.40;70.70;;;;;;5009524;28;20042;-52
2022/06/16 11:15:07;;;;;;;3.88;1.65;;;25.70;75.70;;;;;;5009944;28;20030;-51
2022/06/16 11:17:40;;;;;;;4.70;2.25;;;25.50;71.10;;;;;;5000417;28;20034;-52
2022/06/16 11:20:21;;;;;;;3.35;1.90;;;25.40;69.60;;;;;;5009588;28;20022;-53
2022/06/16 11:22:50;;;;;;;6.32;2.00;;;25.50;74.40;;;;;;5009444;28;20029;-51
2022/06/16 11:25:34;;;;;;;5.50;2.10;;;25.30;71.90;;;;;;5009691;28;20036;-51
2022/06/16 11:28:10;;;;;;;4.03;1.95;;;25.30;70.30;;;;;;5009730;28;20689;-51
2022/06/16 11:30:48;;;;;;;5.90;1.75;;;25.20;70.90;;;;;;5009589;28;20076;-51
2022/06/16 11:36:41;;;;;;;2.53;1.50;;;25.00;71.10;;;;;;5013583;28;20393;-51
2022/06/16 11:39:15;;;;;;;5.93;1.70;;;24.80;71.20;;;;;;4965894;28;20053;-52
2022/06/16 11:41:46;;;;;;;3.67;2.05;;;24.60;74.20;;;;;;5013278;28;20029;-52
2022/06/16 11:44:42;;;;;;;4.05;1.65;;;24.60;74.30;;;;;;5013376;28;20388;-52
2022/06/16 11:47:34;;;;;;;6.43;2.22;;;24.60;75.60;;;;;;5013211;28;20101;-52
2022/06/16 11:50:13;;;;;;;7.18;2.15;;;24.70;75.40;;;;;;4970391;28;20092;-51
2022/06/16 11:52:47;;;;;;;5.32;1.95;;;24.80;76.00;;;;;;5013066;28;20072;-52
2022/06/16 11:55:24;;;;;;;6.53;2.80;;;24.80;76.30;;;;;;5012920;28;20113;-52
2022/06/16 11:57:57;;;;;;;4.78;2.28;;;25.00;74.90;;;;;;5012864;28;20172;-51
2022/06/16 12:00:47;;;;;;;3.78;2.00;;;25.20;78.10;;;;;;5031169;28;20025;-53
2022/06/16 12:03:47;;;;;;;4.93;2.03;;;25.20;75.50;;;;;;5032841;28;20065;-51
2022/06/16 12:06:14;;;;;;;3.65;2.00;;;25.60;80.70;;;;;;5032694;28;20025;-50
2022/06/16 12:08:58;;;;;;;6.57;2.78;;;25.90;77.40;;;;;;5032545;28;20052;-51
2022/06/16 12:11:45;;;;;;;6.85;2.72;;;26.10;76.70;;;;;;5032372;28;20071;-51
2022/06/16 12:14:30;;;;;;;3.90;2.40;;;26.00;76.30;;;;;;5032422;28;20104;-51
2022/06/16 12:17:12;;;;;;;8.02;2.72;;;25.80;77.40;;;;;;5032340;28;20476;-51
2022/06/16 12:20:10;;;;;;;4.78;2.15;;;25.70;78.40;;;;;;5032413;28;20041;-52
2022/06/16 12:22:58;;;;;;;4.07;1.95;;;25.50;76.80;;;;;;5032348;28;20022;-51
2022/06/16 12:25:52;;;;;;;;;;;25.20;75.50;;;;;;5032656;28;20064;-51
2022/06/16 12:28:55;;;;;;;3.17;2.30;;;25.10;77.80;;;;;;5032499;28;20374;-52
2022/06/16 12:31:38;;;;;;;5.28;2.33;;;25.10;78.00;;;;;;5014245;28;20031;-52
2022/06/16 12:34:20;;;;;;;3.45;2.05;;;25.10;78.70;;;;;;5032195;28;20464;-51
2022/06/16 12:36:52;;;;;;;4.75;2.45;;;24.80;78.90;;;;;;5031964;28;20038;-52
2022/06/16 12:39:24;;;;;;;4.03;2.25;;;24.90;81.20;;;;;;5014660;28;20033;-52
2022/06/16 12:41:54;;;;;;;5.10;2.20;;;24.90;81.30;;;;;;5031773;28;20017;-51
2022/06/16 12:44:58;;;;;;;7.93;2.60;;;24.80;82.20;;;;;;5031809;28;20416;-51
2022/06/16 12:47:50;;;;;;;6.68;3.40;;;24.80;84.70;;;;;;5031796;28;20021;-52
2022/06/16 12:50:23;;;;;;;6.15;2.85;;;24.70;87.50;;;;;;5001081;28;20112;-52
2022/06/16 12:53:01;;;;;;;12.50;3.10;;;24.50;88.40;;;;;;5032162;28;20040;-51
2022/06/16 12:55:42;;;;;;;6.28;3.00;;;24.50;90.10;;;;;;5032368;28;20428;-51
2022/06/16 12:58:18;;;;;;;5.63;3.13;;;24.40;91.00;;;;;;4999164;28;20030;-51
2022/06/16 13:00:50;;;;;;;10.10;3.00;;;24.20;92.20;;;;;;5012293;28;20104;-52
2022/06/16 13:03:38;;;;;;;8.20;2.47;;;23.90;93.40;;;;;;5012495;28;20034;-51
2022/06/16 13:06:06;;;;;;;4.25;3.17;;;23.60;92.50;;;;;;4994644;28;20038;-53
2022/06/16 13:08:38;;;;;;;9.02;2.60;;;23.40;93.00;;;;;;4994198;28;20417;-52
2022/06/16 13:11:08;;;;;;;11.40;3.33;;;23.30;93.80;;;;;;5011930;28;20034;-52
2022/06/16 13:13:44;;;;;;;7.85;2.53;;;23.10;96.00;;;;;;4994365;28;20048;-52
2022/06/16 13:16:17;;;;;;;8.90;2.40;;;22.80;93.60;;;;;;5011753;28;20034;-51
2022/06/16 13:18:51;;;;;;;7.90;2.70;;;22.70;95.00;;;;;;5011448;28;20052;-51
2022/06/16 13:21:28;;;;;;;8.93;2.80;;;22.70;94.80;;;;;;5011470;28;20026;-52
2022/06/16 13:24:22;;;;;;;4.10;2.08;;;22.60;95.50;;;;;;5011363;28;20026;-52
2022/06/16 13:27:07;;;;;;;4.10;2.28;;;22.50;95.70;;;;;;5011382;28;20560;-51
2022/06/16 13:30:10;;;;;;;6.82;2.22;;;22.50;95.70;;;;;;4995810;28;20042;-51
2022/06/16 13:32:41;;;;;;;10.27;4.82;;;22.50;94.10;;;;;;4992873;28;20030;-52
2022/06/16 13:35:12;;;;;;;6.75;2.42;;;22.30;99.60;;;;;;5011364;28;20108;-51